Time;durP1;ratioP1;P1;durP2;ratioP2;P2;SDS_P1;SDS_P2;PMS_P1;PMS_P2;Temp;Humidity;BMP_temperature;BMP_pressure;BME280_temperature;BME280_humidity;BME280_pressure;Samples;Min_cycle;Max_cycle;Signal;HPM_P1;HPM_P2
2022/02/20 00:00:54;;;;;;;3.67;1.70;;;;;;;;;;1727662;83;21691;-68
2022/02/20 00:03:20;;;;;;;2.62;1.72;;;;;;;;;;1729461;83;20985;-67
2022/02/20 00:05:46;;;;;;;3.92;2.10;;;;;;;;;;1727834;83;21599;-67
2022/02/20 00:08:12;;;;;;;4.75;2.45;;;;;;;;;;1728811;82;21489;-67
2022/02/20 00:10:39;;;;;;;4.08;2.08;;;;;;;;;;1726919;83;21028;-66
2022/02/20 00:13:05;;;;;;;6.37;1.70;;;;;;;;;;1727989;83;21040;-66
2022/02/20 00:15:33;;;;;;;2.50;1.67;;;;;;;;;;1727589;82;21103;-68
2022/02/20 00:18:01;;;;;;;4.67;2.00;;;;;;;;;;1726347;83;21124;-67
2022/02/20 00:20:30;;;;;;;2.83;1.80;;;;;;;;;;1727760;83;20954;-67
2022/02/20 00:22:55;;;;;;;1.55;1.45;;;;;;;;;;1728424;83;21532;-68
2022/02/20 00:25:21;;;;;;;2.55;1.60;;;;;;;;;;1726493;82;21507;-68
2022/02/20 00:27:47;;;;;;;3.65;2.05;;;;;;;;;;1727189;83;21571;-67
2022/02/20 00:30:13;;;;;;;2.80;1.95;;;;;;;;;;1728579;83;21084;-66
2022/02/20 00:32:40;;;;;;;4.83;1.95;;;;;;;;;;1727021;83;21037;-66
2022/02/20 00:35:07;;;;;;;2.52;1.75;;;;;;;;;;1726781;83;21063;-66
2022/02/20 00:37:34;;;;;;;2.50;1.70;;;;;;;;;;1729253;82;21079;-67
2022/02/20 00:40:00;;;;;;;2.12;1.57;;;;;;;;;;1727095;83;21060;-66
2022/02/20 00:42:26;;;;;;;2.45;1.70;;;;;;;;;;1726324;83;21052;-66
2022/02/20 00:44:52;;;;;;;3.85;1.80;;;;;;;;;;1725628;83;21061;-66
2022/02/20 00:47:18;;;;;;;4.28;2.00;;;;;;;;;;1726898;83;21072;-66
2022/02/20 00:49:44;;;;;;;5.20;2.22;;;;;;;;;;1728133;83;21004;-66
2022/02/20 00:52:10;;;;;;;3.98;2.15;;;;;;;;;;1728021;83;21072;-66
2022/02/20 00:54:38;;;;;;;3.47;1.60;;;;;;;;;;1727730;82;21008;-66
2022/02/20 00:57:04;;;;;;;5.95;2.08;;;;;;;;;;1727387;83;21025;-66
2022/02/20 00:59:31;;;;;;;3.90;1.92;;;;;;;;;;1725132;82;21029;-66
2022/02/20 01:01:57;;;;;;;3.90;1.75;;;;;;;;;;1724580;82;21052;-67
2022/02/20 01:04:26;;;;;;;3.30;1.90;;;;;;;;;;1727626;82;21009;-66
2022/02/20 01:06:52;;;;;;;4.30;1.92;;;;;;;;;;1727205;82;21088;-67
2022/02/20 01:09:18;;;;;;;4.78;1.60;;;;;;;;;;1723885;82;21608;-67
2022/02/20 01:11:44;;;;;;;4.78;2.10;;;;;;;;;;1724415;82;21032;-67
2022/02/20 01:14:12;;;;;;;3.00;1.57;;;;;;;;;;1724365;82;21096;-67
2022/02/20 01:16:39;;;;;;;2.83;1.62;;;;;;;;;;1725694;82;21072;-67
2022/02/20 01:19:05;;;;;;;4.33;2.02;;;;;;;;;;1726362;82;21065;-67
2022/02/20 01:21:31;;;;;;;4.05;2.10;;;;;;;;;;1725617;82;21469;-67
2022/02/20 01:23:57;;;;;;;3.90;1.90;;;;;;;;;;1726700;82;21032;-67
2022/02/20 01:26:25;;;;;;;7.10;2.37;;;;;;;;;;1727776;82;21032;-67
2022/02/20 01:28:52;;;;;;;5.80;2.27;;;;;;;;;;1726719;82;21524;-67
2022/02/20 01:31:18;;;;;;;3.27;2.05;;;;;;;;;;1727167;82;21095;-67
2022/02/20 01:33:44;;;;;;;3.27;1.80;;;;;;;;;;1726976;82;21088;-67
2022/02/20 01:36:10;;;;;;;5.53;2.33;;;;;;;;;;1725066;82;21509;-66
2022/02/20 01:38:36;;;;;;;4.37;2.10;;;;;;;;;;1723221;82;21096;-67
2022/02/20 01:41:03;;;;;;;6.65;2.27;;;;;;;;;;1724648;82;21060;-66
2022/02/20 01:43:31;;;;;;;5.20;2.40;;;;;;;;;;1725543;82;20950;-66
2022/02/20 01:45:57;;;;;;;2.15;1.55;;;;;;;;;;1726646;82;21020;-66
2022/02/20 01:48:24;;;;;;;3.30;2.10;;;;;;;;;;1726089;82;21587;-66
2022/02/20 01:50:51;;;;;;;4.35;2.30;;;;;;;;;;1727492;82;21025;-66
2022/02/20 01:53:18;;;;;;;4.55;2.00;;;;;;;;;;1724416;82;21064;-66
2022/02/20 01:55:44;;;;;;;3.25;1.90;;;;;;;;;;1728128;82;21127;-67
2022/02/20 01:58:12;;;;;;;2.90;1.80;;;;;;;;;;1707605;82;21072;-67
2022/02/20 02:03:34;;;;;;;4.25;1.90;;;;;;;;;;1683738;79;74334;-66
2022/02/20 02:06:02;;;;;;;3.50;1.98;;;;;;;;;;1667837;84;21029;-67
2022/02/20 02:08:29;;;;;;;5.50;2.58;;;;;;;;;;1659949;86;21062;-67
2022/02/20 02:11:07;;;;;;;5.87;2.30;;;;;;;;;;1666751;84;21057;-66
2022/02/20 02:13:39;;;;;;;3.75;1.92;;;;;;;;;;1647118;86;21060;-67
2022/02/20 02:16:21;;;;;;;3.67;1.77;;;;;;;;;;1666212;85;21560;-66
2022/02/20 02:19:00;;;;;;;3.67;1.90;;;;;;;;;;1637543;86;21046;-66
2022/02/20 02:21:35;;;;;;;5.45;2.12;;;;;;;;;;1665064;86;21034;-66
2022/02/20 02:24:03;;;;;;;4.35;1.85;;;;;;;;;;1667273;85;21588;-66
2022/02/20 02:26:32;;;;;;;3.05;1.98;;;;;;;;;;1657708;86;21098;-66
2022/02/20 02:29:17;;;;;;;5.97;2.47;;;;;;;;;;1664702;85;21055;-66
2022/02/20 02:31:43;;;;;;;3.95;2.05;;;;;;;;;;1667597;85;21179;-66
2022/02/20 02:34:10;;;;;;;2.62;2.10;;;;;;;;;;1666164;86;21024;-67
2022/02/20 02:36:37;;;;;;;3.27;2.30;;;;;;;;;;1682699;84;21535;-66
2022/02/20 02:39:04;;;;;;;3.47;1.98;;;;;;;;;;1663270;85;21106;-67
2022/02/20 02:41:30;;;;;;;2.87;1.62;;;;;;;;;;1663446;85;21070;-67
2022/02/20 02:43:57;;;;;;;3.35;2.00;;;;;;;;;;1665127;86;21013;-67
2022/02/20 02:46:24;;;;;;;4.85;2.10;;;;;;;;;;1637611;86;21025;-68
2022/02/20 02:48:52;;;;;;;4.72;2.50;;;;;;;;;;1661891;86;21022;-68
2022/02/20 02:51:20;;;;;;;4.67;2.50;;;;;;;;;;1662231;86;21563;-66
2022/02/20 02:53:47;;;;;;;3.95;2.08;;;;;;;;;;1661337;85;21046;-66
2022/02/20 02:56:13;;;;;;;4.15;2.33;;;;;;;;;;1663778;86;22382;-67
2022/02/20 02:58:39;;;;;;;4.25;2.22;;;;;;;;;;1663498;85;21016;-66
2022/02/20 03:01:07;;;;;;;4.70;2.00;;;;;;;;;;1666797;85;21105;-65
2022/02/20 03:03:34;;;;;;;2.83;1.75;;;;;;;;;;1672971;83;21108;-66
2022/02/20 03:06:00;;;;;;;2.75;1.75;;;;;;;;;;1698643;83;21020;-66
2022/02/20 03:08:28;;;;;;;3.92;2.10;;;;;;;;;;1698375;84;21028;-66
2022/02/20 03:10:56;;;;;;;4.00;2.20;;;;;;;;;;1698770;84;21034;-66
2022/02/20 03:13:23;;;;;;;4.28;2.05;;;;;;;;;;1700436;84;21037;-66
2022/02/20 03:15:49;;;;;;;6.50;2.70;;;;;;;;;;1698733;83;21044;-66
2022/02/20 03:18:16;;;;;;;5.22;1.90;;;;;;;;;;1689095;84;20972;-66
2022/02/20 03:20:42;;;;;;;3.42;1.85;;;;;;;;;;1700330;84;21595;-65
2022/02/20 03:23:08;;;;;;;3.92;2.00;;;;;;;;;;1702065;83;21037;-67
2022/02/20 03:25:34;;;;;;;2.92;1.98;;;;;;;;;;1700487;83;21024;-66
2022/02/20 03:28:02;;;;;;;3.10;1.90;;;;;;;;;;1698019;84;21095;-67
2022/02/20 03:30:31;;;;;;;3.60;2.08;;;;;;;;;;1692794;84;21062;-67
2022/02/20 03:32:58;;;;;;;3.15;1.92;;;;;;;;;;1695230;84;21044;-67
2022/02/20 03:35:24;;;;;;;3.87;2.20;;;;;;;;;;1701692;83;21032;-67
2022/02/20 03:37:51;;;;;;;10.25;2.92;;;;;;;;;;1700262;84;21048;-67
2022/02/20 03:40:19;;;;;;;5.87;2.25;;;;;;;;;;1694941;84;21033;-67
2022/02/20 03:42:45;;;;;;;5.72;2.30;;;;;;;;;;1665309;84;20976;-67
2022/02/20 03:45:31;;;;;;;4.78;2.20;;;;;;;;;;1700598;83;21003;-67
2022/02/20 03:47:57;;;;;;;3.85;2.00;;;;;;;;;;1698685;84;21009;-67
2022/02/20 03:50:23;;;;;;;4.15;2.25;;;;;;;;;;1665042;84;20974;-67
2022/02/20 03:52:52;;;;;;;2.85;1.72;;;;;;;;;;1695791;84;21020;-66
2022/02/20 03:55:23;;;;;;;4.42;1.90;;;;;;;;;;1695733;83;21025;-66
2022/02/20 03:57:50;;;;;;;2.98;2.08;;;;;;;;;;1699050;84;21056;-66
2022/02/20 04:00:19;;;;;;;2.62;1.82;;;;;;;;;;1696039;84;21550;-66
2022/02/20 04:02:50;;;;;;;8.50;2.80;;;;;;;;;;1698492;83;21637;-66
2022/02/20 04:05:16;;;;;;;6.08;2.47;;;;;;;;;;1703881;83;21488;-66
2022/02/20 04:07:42;;;;;;;6.45;2.55;;;;;;;;;;1698768;84;21042;-67
2022/02/20 04:10:10;;;;;;;9.13;3.02;;;;;;;;;;1698880;84;21078;-67
2022/02/20 04:12:39;;;;;;;4.80;2.10;;;;;;;;;;1698812;84;21591;-66
2022/02/20 04:15:07;;;;;;;3.37;2.20;;;;;;;;;;1698661;83;21049;-66
2022/02/20 04:17:40;;;;;;;5.03;2.00;;;;;;;;;;1695964;84;21590;-67
2022/02/20 04:20:08;;;;;;;6.42;2.58;;;;;;;;;;1695939;84;21026;-67
2022/02/20 04:22:34;;;;;;;3.17;2.05;;;;;;;;;;1697899;84;21024;-67
2022/02/20 04:25:01;;;;;;;4.50;2.37;;;;;;;;;;1697726;83;20980;-67
2022/02/20 04:27:27;;;;;;;5.80;2.30;;;;;;;;;;1698757;84;21013;-67
2022/02/20 04:29:53;;;;;;;6.70;2.72;;;;;;;;;;1699948;84;20990;-67
2022/02/20 04:32:19;;;;;;;6.33;2.12;;;;;;;;;;1697840;84;21559;-66
2022/02/20 04:34:45;;;;;;;4.62;2.45;;;;;;;;;;1699060;83;21044;-66
2022/02/20 04:37:12;;;;;;;3.47;1.90;;;;;;;;;;1700886;83;21097;-66
2022/02/20 04:39:38;;;;;;;2.02;1.65;;;;;;;;;;1701363;82;21028;-67
2022/02/20 04:42:05;;;;;;;4.20;2.22;;;;;;;;;;1697298;83;21008;-66
2022/02/20 04:44:45;;;;;;;4.45;2.00;;;;;;;;;;1693484;83;21557;-67
2022/02/20 04:47:15;;;;;;;5.03;2.47;;;;;;;;;;1699645;84;21080;-67
2022/02/20 04:49:41;;;;;;;4.20;2.25;;;;;;;;;;1698626;84;21028;-67
2022/02/20 04:52:09;;;;;;;3.92;2.30;;;;;;;;;;1701391;82;21492;-67
2022/02/20 04:54:54;;;;;;;6.42;3.05;;;;;;;;;;1698139;83;21016;-67
2022/02/20 04:57:20;;;;;;;4.17;2.20;;;;;;;;;;1712521;83;21016;-68
2022/02/20 04:59:47;;;;;;;5.95;2.42;;;;;;;;;;1699274;82;21602;-67
2022/02/20 05:02:12;;;;;;;2.95;1.95;;;;;;;;;;1702295;82;21524;-67
2022/02/20 05:04:41;;;;;;;4.03;1.85;;;;;;;;;;1690134;84;21065;-67
2022/02/20 05:07:08;;;;;;;5.33;2.05;;;;;;;;;;1683397;85;21995;-67
2022/02/20 05:09:37;;;;;;;5.97;2.37;;;;;;;;;;1681200;85;21100;-67
2022/02/20 05:12:06;;;;;;;7.28;2.27;;;;;;;;;;1679730;85;21010;-67
2022/02/20 05:14:33;;;;;;;4.12;2.20;;;;;;;;;;1685259;85;21524;-67
2022/02/20 05:17:01;;;;;;;3.42;2.00;;;;;;;;;;1679869;85;21010;-67
2022/02/20 05:19:35;;;;;;;;;;;;;;;;;;1682924;84;21624;-67
2022/02/20 05:22:01;;;;;;;5.50;2.30;;;;;;;;;;1679604;85;20119;-67
2022/02/20 05:24:29;;;;;;;4.75;2.35;;;;;;;;;;1680457;85;21065;-66
2022/02/20 05:26:55;;;;;;;5.08;2.22;;;;;;;;;;1681366;85;21580;-66
2022/02/20 05:29:23;;;;;;;3.60;1.98;;;;;;;;;;1682888;83;21032;-66
2022/02/20 05:31:51;;;;;;;4.78;2.52;;;;;;;;;;1681628;85;21006;-65
2022/02/20 05:34:18;;;;;;;6.92;2.70;;;;;;;;;;1683370;85;21085;-67
2022/02/20 05:36:45;;;;;;;6.17;2.20;;;;;;;;;;1680343;85;20978;-66
2022/02/20 05:39:17;;;;;;;6.40;2.30;;;;;;;;;;1684747;84;21052;-67
2022/02/20 05:41:43;;;;;;;6.78;3.10;;;;;;;;;;1679893;84;21480;-68
2022/02/20 05:44:09;;;;;;;5.17;2.22;;;;;;;;;;1687334;84;21043;-67
2022/02/20 05:46:37;;;;;;;3.47;2.02;;;;;;;;;;1680317;85;21506;-68
2022/02/20 05:49:05;;;;;;;4.67;2.42;;;;;;;;;;1691085;83;21559;-66
2022/02/20 05:51:40;;;;;;;3.37;1.77;;;;;;;;;;1686920;84;21520;-67
2022/02/20 05:54:07;;;;;;;6.22;2.75;;;;;;;;;;1686570;83;21077;-67
2022/02/20 05:56:34;;;;;;;4.67;2.35;;;;;;;;;;1681973;84;21600;-67
2022/02/20 05:59:02;;;;;;;5.47;2.75;;;;;;;;;;1682950;83;21041;-67
2022/02/20 06:01:31;;;;;;;4.47;2.37;;;;;;;;;;1656918;85;21057;-67
2022/02/20 06:03:59;;;;;;;5.78;2.80;;;;;;;;;;1680723;83;21604;-68
2022/02/20 06:06:32;;;;;;;6.87;2.10;;;;;;;;;;1656544;84;21093;-68
2022/02/20 06:09:17;;;;;;;4.58;2.22;;;;;;;;;;1697733;84;21011;-66
2022/02/20 06:11:46;;;;;;;4.15;2.00;;;;;;;;;;1692255;83;21055;-66
2022/02/20 06:14:14;;;;;;;5.80;2.40;;;;;;;;;;1693513;83;21549;-66
2022/02/20 06:16:44;;;;;;;4.58;2.27;;;;;;;;;;1687565;84;21100;-66
2022/02/20 06:19:15;;;;;;;5.87;2.30;;;;;;;;;;1686019;83;21096;-66
2022/02/20 06:21:59;;;;;;;4.58;2.12;;;;;;;;;;1689133;84;21516;-66
2022/02/20 06:24:38;;;;;;;4.47;2.33;;;;;;;;;;1696443;83;21061;-66
2022/02/20 06:27:12;;;;;;;5.28;2.20;;;;;;;;;;1694286;84;21483;-66
2022/02/20 06:29:39;;;;;;;7.92;2.85;;;;;;;;;;1696371;84;21504;-66
2022/02/20 06:32:06;;;;;;;3.22;2.10;;;;;;;;;;1696512;84;21080;-66
2022/02/20 06:34:35;;;;;;;4.85;2.02;;;;;;;;;;1695946;83;21929;-67
2022/02/20 06:37:03;;;;;;;3.83;2.20;;;;;;;;;;1694448;83;21064;-67
2022/02/20 06:39:32;;;;;;;3.22;1.98;;;;;;;;;;1694501;84;21559;-67
2022/02/20 06:41:59;;;;;;;5.40;2.70;;;;;;;;;;1691394;84;21055;-67
2022/02/20 06:44:25;;;;;;;6.33;3.02;;;;;;;;;;1700819;83;21072;-68
2022/02/20 06:46:56;;;;;;;7.90;3.80;;;;;;;;;;1698907;83;21032;-67
2022/02/20 06:49:24;;;;;;;8.20;2.87;;;;;;;;;;1693766;83;21044;-67
2022/02/20 06:51:55;;;;;;;5.22;2.55;;;;;;;;;;1688593;84;21060;-68
2022/02/20 06:54:38;;;;;;;4.92;2.40;;;;;;;;;;1699644;83;21638;-68
2022/02/20 06:57:09;;;;;;;5.42;2.52;;;;;;;;;;1700448;83;21024;-67
2022/02/20 06:59:35;;;;;;;4.17;2.30;;;;;;;;;;1696935;83;21509;-68
2022/02/20 07:02:01;;;;;;;8.08;2.80;;;;;;;;;;1693338;83;21022;-68
2022/02/20 07:04:28;;;;;;;6.62;2.20;;;;;;;;;;1697427;81;21048;-68
2022/02/20 07:06:54;;;;;;;7.05;2.90;;;;;;;;;;1686953;83;21036;-68
2022/02/20 07:09:21;;;;;;;5.95;2.87;;;;;;;;;;1680879;85;21006;-68
2022/02/20 07:11:47;;;;;;;4.47;2.50;;;;;;;;;;1681460;83;21033;-68
2022/02/20 07:14:13;;;;;;;3.65;2.20;;;;;;;;;;1685600;83;20990;-69
2022/02/20 07:16:39;;;;;;;7.72;4.05;;;;;;;;;;1678243;85;21524;-69
2022/02/20 07:19:05;;;;;;;6.53;3.12;;;;;;;;;;1683147;84;21131;-70
2022/02/20 07:21:31;;;;;;;6.35;2.12;;;;;;;;;;1682341;83;21032;-68
2022/02/20 07:23:58;;;;;;;4.03;2.10;;;;;;;;;;1684477;84;21056;-68
2022/02/20 07:26:29;;;;;;;8.25;3.10;;;;;;;;;;1687986;85;21572;-67
2022/02/20 07:28:53;;;;;;;5.12;2.27;;;;;;;;;;1683581;85;21048;-68
2022/02/20 07:31:19;;;;;;;3.77;2.10;;;;;;;;;;1684288;83;21026;-68
2022/02/20 07:33:45;;;;;;;5.53;2.50;;;;;;;;;;1684147;84;21001;-67
2022/02/20 07:36:11;;;;;;;5.55;2.47;;;;;;;;;;1681248;84;20954;-71
2022/02/20 07:38:37;;;;;;;6.42;2.55;;;;;;;;;;1681310;85;21040;-68
2022/02/20 07:41:03;;;;;;;4.87;2.27;;;;;;;;;;1662643;85;21021;-68
2022/02/20 07:43:30;;;;;;;4.83;2.50;;;;;;;;;;1688671;83;21532;-68
2022/02/20 07:45:56;;;;;;;6.35;3.50;;;;;;;;;;1686060;83;21052;-68
2022/02/20 07:48:22;;;;;;;5.35;2.37;;;;;;;;;;1682849;84;21025;-69
2022/02/20 07:50:48;;;;;;;4.60;2.67;;;;;;;;;;1679733;85;21153;-68
2022/02/20 07:53:14;;;;;;;6.08;2.70;;;;;;;;;;1683479;84;22073;-70
2022/02/20 07:55:40;;;;;;;5.33;2.30;;;;;;;;;;1687253;83;21036;-69
2022/02/20 07:58:12;;;;;;;6.08;2.70;;;;;;;;;;1684217;84;21084;-69
2022/02/20 08:00:38;;;;;;;4.00;2.12;;;;;;;;;;1688670;83;21124;-69
2022/02/20 08:03:04;;;;;;;6.47;2.20;;;;;;;;;;1684632;83;21088;-70
2022/02/20 08:05:32;;;;;;;6.37;2.33;;;;;;;;;;1689302;83;21041;-70
2022/02/20 08:07:58;;;;;;;4.12;1.80;;;;;;;;;;1691213;84;21056;-70
2022/02/20 08:10:24;;;;;;;4.97;2.20;;;;;;;;;;1692663;83;21078;-70
2022/02/20 08:12:51;;;;;;;5.05;2.30;;;;;;;;;;1697212;83;20997;-70
2022/02/20 08:15:18;;;;;;;5.45;2.47;;;;;;;;;;1697972;83;21116;-70
2022/02/20 08:17:45;;;;;;;6.85;2.95;;;;;;;;;;1692072;83;21523;-69
2022/02/20 08:20:12;;;;;;;8.23;3.00;;;;;;;;;;1652718;85;21479;-69
2022/02/20 08:22:39;;;;;;;5.97;2.67;;;;;;;;;;1659489;85;21093;-69
2022/02/20 08:25:06;;;;;;;6.05;2.70;;;;;;;;;;1691496;84;20961;-69
2022/02/20 08:27:33;;;;;;;4.58;2.40;;;;;;;;;;1689580;84;21013;-70
2022/02/20 08:29:59;;;;;;;6.33;2.92;;;;;;;;;;1669633;84;21529;-69
2022/02/20 08:32:25;;;;;;;6.65;3.00;;;;;;;;;;1667524;85;21067;-69
2022/02/20 08:34:50;;;;;;;4.95;2.40;;;;;;;;;;1631246;86;21564;-70
2022/02/20 08:37:16;;;;;;;5.47;2.92;;;;;;;;;;1629633;87;21052;-69
2022/02/20 08:39:42;;;;;;;8.78;3.10;;;;;;;;;;1690947;84;21125;-69
2022/02/20 08:42:09;;;;;;;5.28;2.35;;;;;;;;;;1694002;84;21053;-69
2022/02/20 08:44:36;;;;;;;5.42;2.65;;;;;;;;;;1700925;83;21012;-69
2022/02/20 08:47:02;;;;;;;7.55;2.70;;;;;;;;;;1690565;83;21009;-71
2022/02/20 08:49:29;;;;;;;8.83;3.17;;;;;;;;;;1692284;83;21068;-70
2022/02/20 08:51:55;;;;;;;5.83;2.72;;;;;;;;;;1669014;85;21040;-71
2022/02/20 08:54:21;;;;;;;5.20;2.62;;;;;;;;;;1690861;85;21004;-70
2022/02/20 08:56:46;;;;;;;5.42;2.72;;;;;;;;;;1691820;84;21040;-71
2022/02/20 08:59:12;;;;;;;4.12;2.60;;;;;;;;;;1697595;83;21060;-70
2022/02/20 09:01:38;;;;;;;6.92;2.60;;;;;;;;;;1693589;82;21104;-70
2022/02/20 09:04:04;;;;;;;6.03;3.00;;;;;;;;;;1696877;83;21068;-69
2022/02/20 09:06:32;;;;;;;6.35;2.62;;;;;;;;;;1670672;83;21001;-71
2022/02/20 09:08:58;;;;;;;4.15;2.70;;;;;;;;;;1665756;85;21068;-71
2022/02/20 09:11:25;;;;;;;3.75;2.50;;;;;;;;;;1665171;86;21003;-70
2022/02/20 09:16:28;;;;;;;6.20;2.95;;;;;;;;;;1805344;78;22879;-72
2022/02/20 09:18:56;;;;;;;4.97;2.30;;;;;;;;;;1763946;80;21545;-72
2022/02/20 09:21:22;;;;;;;9.00;3.00;;;;;;;;;;1764629;80;20981;-72
2022/02/20 09:23:48;;;;;;;6.72;2.72;;;;;;;;;;1761156;81;21110;-72
2022/02/20 09:26:14;;;;;;;6.58;2.42;;;;;;;;;;1761498;80;21059;-72
2022/02/20 09:28:43;;;;;;;4.62;2.47;;;;;;;;;;1764961;80;21575;-71
2022/02/20 09:31:09;;;;;;;5.33;2.77;;;;;;;;;;1761915;80;21464;-71
2022/02/20 09:33:34;;;;;;;6.25;2.60;;;;;;;;;;1762239;80;21061;-70
2022/02/20 09:36:01;;;;;;;4.25;2.75;;;;;;;;;;1764764;80;21063;-70
2022/02/20 09:38:28;;;;;;;4.47;2.30;;;;;;;;;;1762020;80;21001;-71
2022/02/20 09:40:55;;;;;;;5.55;3.20;;;;;;;;;;1762694;80;21032;-72
2022/02/20 09:43:20;;;;;;;6.05;2.52;;;;;;;;;;1762241;80;21044;-73
2022/02/20 09:45:48;;;;;;;5.40;2.80;;;;;;;;;;1759138;80;21091;-71
2022/02/20 09:48:15;;;;;;;5.33;2.60;;;;;;;;;;1761578;81;21032;-72
2022/02/20 09:50:43;;;;;;;4.60;2.58;;;;;;;;;;1761943;80;20989;-72
2022/02/20 09:53:09;;;;;;;4.53;2.17;;;;;;;;;;1761831;81;20986;-72
2022/02/20 09:55:35;;;;;;;6.08;2.70;;;;;;;;;;1762215;80;20987;-71
2022/02/20 09:58:01;;;;;;;5.58;2.85;;;;;;;;;;1762369;80;20977;-70
2022/02/20 10:00:27;;;;;;;4.67;2.75;;;;;;;;;;1767723;80;21037;-71
2022/02/20 10:02:53;;;;;;;5.40;2.85;;;;;;;;;;1760404;81;21015;-70
2022/02/20 10:05:20;;;;;;;5.10;2.15;;;;;;;;;;1729862;82;20997;-70
2022/02/20 10:07:47;;;;;;;3.83;2.58;;;;;;;;;;1729018;82;21067;-70
2022/02/20 10:10:14;;;;;;;5.30;2.75;;;;;;;;;;1725934;83;21047;-71
2022/02/20 10:12:42;;;;;;;4.80;2.70;;;;;;;;;;1727918;83;21252;-71
2022/02/20 10:15:28;;;;;;;4.03;2.10;;;;;;;;;;1723279;83;21013;-72
2022/02/20 10:17:56;;;;;;;4.12;2.35;;;;;;;;;;1709569;84;21064;-71
2022/02/20 10:20:43;;;;;;;5.40;2.67;;;;;;;;;;1712592;84;21009;-71
2022/02/20 10:23:30;;;;;;;5.92;2.72;;;;;;;;;;1713024;83;21040;-72
2022/02/20 10:26:19;;;;;;;5.35;2.60;;;;;;;;;;1713219;83;21017;-70
2022/02/20 10:29:05;;;;;;;7.97;2.58;;;;;;;;;;1699867;84;20993;-69
2022/02/20 10:31:38;;;;;;;5.95;3.17;;;;;;;;;;1710720;84;20993;-71
2022/02/20 10:34:09;;;;;;;5.00;2.72;;;;;;;;;;1705488;82;20961;-72
2022/02/20 10:36:48;;;;;;;6.10;2.90;;;;;;;;;;1712143;83;21544;-72
2022/02/20 10:39:21;;;;;;;5.78;2.60;;;;;;;;;;1710360;84;21587;-71
2022/02/20 10:41:47;;;;;;;3.52;2.20;;;;;;;;;;1712250;83;21103;-71
2022/02/20 10:44:13;;;;;;;4.20;2.50;;;;;;;;;;1712289;83;21621;-71
2022/02/20 10:46:39;;;;;;;5.28;2.55;;;;;;;;;;1712422;83;21606;-73
2022/02/20 10:49:05;;;;;;;6.17;2.80;;;;;;;;;;1712314;84;21024;-71
2022/02/20 10:51:37;;;;;;;8.53;3.15;;;;;;;;;;1702724;82;21107;-72
2022/02/20 10:54:04;;;;;;;5.75;2.37;;;;;;;;;;1696736;84;21052;-71
2022/02/20 10:56:39;;;;;;;7.10;3.12;;;;;;;;;;1695628;82;21016;-72
2022/02/20 10:59:05;;;;;;;5.20;2.37;;;;;;;;;;1695019;83;21587;-71
2022/02/20 11:01:32;;;;;;;4.00;2.35;;;;;;;;;;1700235;83;21056;-70
2022/02/20 11:04:10;;;;;;;5.05;2.55;;;;;;;;;;1704831;82;22160;-71
2022/02/20 11:06:38;;;;;;;6.28;2.35;;;;;;;;;;1710531;84;21049;-71
2022/02/20 11:09:06;;;;;;;6.08;2.92;;;;;;;;;;1701248;83;21063;-71
2022/02/20 11:11:42;;;;;;;5.60;2.40;;;;;;;;;;1713393;83;21032;-71
2022/02/20 11:14:12;;;;;;;5.65;3.00;;;;;;;;;;1708779;84;21504;-70
2022/02/20 11:16:48;;;;;;;5.03;2.50;;;;;;;;;;1711997;83;21021;-72
2022/02/20 11:19:16;;;;;;;3.62;2.15;;;;;;;;;;1709640;84;21583;-72
2022/02/20 11:21:43;;;;;;;3.90;2.90;;;;;;;;;;1714763;83;20992;-70
2022/02/20 11:24:09;;;;;;;3.25;2.27;;;;;;;;;;1712195;83;21052;-70
2022/02/20 11:26:36;;;;;;;6.30;4.10;;;;;;;;;;1709865;84;21004;-71
2022/02/20 11:29:02;;;;;;;6.70;3.83;;;;;;;;;;1706577;83;21507;-71
2022/02/20 11:31:29;;;;;;;6.60;3.00;;;;;;;;;;1711705;83;21033;-72
2022/02/20 11:33:55;;;;;;;4.33;2.40;;;;;;;;;;1712293;83;21905;-70
2022/02/20 11:36:22;;;;;;;4.65;2.65;;;;;;;;;;1712082;83;21028;-71
2022/02/20 11:39:07;;;;;;;5.78;2.98;;;;;;;;;;1712198;84;21568;-71
2022/02/20 11:41:33;;;;;;;5.75;2.70;;;;;;;;;;1709895;83;21536;-74
2022/02/20 11:44:12;;;;;;;5.87;2.92;;;;;;;;;;1712006;84;21032;-75
2022/02/20 11:46:46;;;;;;;3.80;2.10;;;;;;;;;;1711700;84;20985;-74
2022/02/20 11:49:19;;;;;;;5.42;2.60;;;;;;;;;;1667294;85;21529;-74
2022/02/20 11:52:02;;;;;;;5.42;2.30;;;;;;;;;;1711657;83;21437;-75
2022/02/20 11:54:30;;;;;;;6.00;2.60;;;;;;;;;;1708809;84;21013;-74
2022/02/20 11:57:23;;;;;;;5.05;2.40;;;;;;;;;;1696574;83;21070;-74
2022/02/20 12:00:06;;;;;;;5.40;2.98;;;;;;;;;;1697353;83;21061;-74
2022/02/20 12:02:59;;;;;;;5.35;2.42;;;;;;;;;;1708710;83;21660;-76
2022/02/20 12:05:25;;;;;;;5.37;2.40;;;;;;;;;;1708519;84;21009;-74
2022/02/20 12:07:51;;;;;;;4.22;2.17;;;;;;;;;;1711846;84;21036;-74
2022/02/20 12:10:28;;;;;;;6.00;2.25;;;;;;;;;;1712116;83;21028;-74
2022/02/20 12:12:53;;;;;;;7.87;2.92;;;;;;;;;;1708233;84;21079;-75
2022/02/20 12:15:38;;;;;;;6.70;2.60;;;;;;;;;;1699143;83;21068;-75
2022/02/20 12:18:19;;;;;;;6.33;2.62;;;;;;;;;;1707238;82;21003;-74
2022/02/20 12:20:46;;;;;;;6.10;2.60;;;;;;;;;;1702275;82;21532;-75
2022/02/20 12:23:11;;;;;;;6.87;3.35;;;;;;;;;;1711977;83;21029;-74
2022/02/20 12:25:38;;;;;;;5.37;2.72;;;;;;;;;;1690134;84;21051;-75
2022/02/20 12:28:07;;;;;;;6.55;2.60;;;;;;;;;;1712128;84;20988;-75
2022/02/20 12:30:34;;;;;;;6.50;3.17;;;;;;;;;;1711832;84;21045;-74
2022/02/20 12:33:00;;;;;;;8.85;3.00;;;;;;;;;;1714061;83;20992;-72
2022/02/20 12:35:27;;;;;;;4.25;2.17;;;;;;;;;;1711996;84;20946;-73
2022/02/20 12:37:53;;;;;;;3.45;2.40;;;;;;;;;;1719446;82;21564;-73
2022/02/20 12:40:26;;;;;;;12.18;4.55;;;;;;;;;;1712049;83;21096;-73
2022/02/20 12:42:57;;;;;;;6.03;2.72;;;;;;;;;;1710686;83;22108;-73
2022/02/20 12:45:28;;;;;;;8.05;2.90;;;;;;;;;;1712018;83;20995;-73
2022/02/20 12:47:55;;;;;;;4.97;2.65;;;;;;;;;;1713490;83;21064;-73
2022/02/20 12:50:22;;;;;;;7.00;2.60;;;;;;;;;;1712089;83;21016;-72
2022/02/20 12:52:48;;;;;;;6.80;2.60;;;;;;;;;;1711932;83;21008;-73
2022/02/20 12:55:15;;;;;;;4.22;2.60;;;;;;;;;;1712014;84;20997;-73
2022/02/20 12:57:42;;;;;;;4.72;2.70;;;;;;;;;;1711914;83;20969;-72
2022/02/20 13:00:09;;;;;;;9.20;2.98;;;;;;;;;;1712126;84;20985;-73
2022/02/20 13:02:36;;;;;;;4.58;2.35;;;;;;;;;;1709034;82;20973;-75
2022/02/20 13:05:07;;;;;;;5.10;2.52;;;;;;;;;;1699967;82;21032;-76
2022/02/20 13:07:37;;;;;;;5.58;3.33;;;;;;;;;;1703604;84;21032;-74
2022/02/20 13:10:03;;;;;;;5.00;2.95;;;;;;;;;;1707316;82;21004;-74
2022/02/20 13:12:31;;;;;;;7.28;3.77;;;;;;;;;;1711786;83;21096;-73
2022/02/20 13:14:58;;;;;;;4.53;2.52;;;;;;;;;;1712215;84;21015;-73
2022/02/20 13:17:43;;;;;;;6.47;3.33;;;;;;;;;;1712450;82;21476;-74
2022/02/20 13:20:26;;;;;;;5.72;3.10;;;;;;;;;;1706606;84;21038;-73
2022/02/20 13:22:52;;;;;;;9.60;3.05;;;;;;;;;;1608247;88;21052;-74
2022/02/20 13:25:18;;;;;;;6.95;3.42;;;;;;;;;;1680978;83;22085;-74
2022/02/20 13:27:45;;;;;;;4.72;2.67;;;;;;;;;;1705212;83;21057;-74
2022/02/20 13:30:12;;;;;;;7.85;2.98;;;;;;;;;;1712027;83;20981;-74
2022/02/20 13:32:38;;;;;;;7.83;2.95;;;;;;;;;;1710239;84;21052;-74
2022/02/20 13:35:04;;;;;;;5.25;2.60;;;;;;;;;;1710385;83;21064;-73
2022/02/20 13:37:30;;;;;;;8.40;3.05;;;;;;;;;;1709111;83;21009;-72
2022/02/20 13:39:57;;;;;;;6.12;3.00;;;;;;;;;;1706776;83;21627;-73
2022/02/20 13:42:24;;;;;;;5.40;3.60;;;;;;;;;;1709979;84;20942;-73
2022/02/20 13:44:50;;;;;;;6.58;3.92;;;;;;;;;;1709852;84;21091;-74
2022/02/20 13:47:17;;;;;;;5.40;2.62;;;;;;;;;;1688113;84;20997;-74
2022/02/20 13:49:44;;;;;;;5.03;2.72;;;;;;;;;;1703652;84;20988;-74
2022/02/20 13:52:10;;;;;;;7.67;3.62;;;;;;;;;;1708275;84;21064;-74
2022/02/20 13:54:36;;;;;;;7.97;3.77;;;;;;;;;;1711105;84;21017;-74
2022/02/20 13:57:02;;;;;;;8.60;4.60;;;;;;;;;;1711502;83;21270;-73
2022/02/20 13:59:32;;;;;;;7.28;3.70;;;;;;;;;;1710098;83;21556;-74
2022/02/20 14:02:01;;;;;;;7.47;3.55;;;;;;;;;;1696223;83;20958;-73
2022/02/20 14:04:29;;;;;;;8.40;4.75;;;;;;;;;;1706472;82;21020;-74
2022/02/20 14:06:56;;;;;;;13.18;5.62;;;;;;;;;;1713240;83;21013;-75
2022/02/20 14:09:24;;;;;;;10.95;5.97;;;;;;;;;;1689194;84;21075;-75
2022/02/20 14:11:50;;;;;;;8.48;3.92;;;;;;;;;;1708556;83;20973;-75
2022/02/20 14:14:17;;;;;;;7.67;3.80;;;;;;;;;;1711534;83;21068;-74
2022/02/20 14:16:46;;;;;;;8.18;3.80;;;;;;;;;;1717197;82;21539;-74
2022/02/20 14:19:14;;;;;;;12.50;5.35;;;;;;;;;;1716424;82;21045;-74
2022/02/20 14:21:42;;;;;;;10.75;5.45;;;;;;;;;;1721744;82;21004;-73
2022/02/20 14:24:09;;;;;;;10.45;4.72;;;;;;;;;;1693559;82;21016;-72
2022/02/20 14:26:36;;;;;;;8.20;3.50;;;;;;;;;;1724052;82;21057;-75
2022/02/20 14:29:02;;;;;;;8.68;3.80;;;;;;;;;;1717725;82;22321;-74
2022/02/20 14:31:31;;;;;;;7.92;3.52;;;;;;;;;;1716797;83;21456;-74
2022/02/20 14:33:57;;;;;;;10.18;4.97;;;;;;;;;;1719886;83;21008;-73
2022/02/20 14:36:28;;;;;;;10.32;3.90;;;;;;;;;;1719648;82;21001;-74
2022/02/20 14:38:54;;;;;;;7.95;4.30;;;;;;;;;;1715351;82;21064;-73
2022/02/20 14:41:20;;;;;;;7.87;3.67;;;;;;;;;;1722229;82;21175;-76
2022/02/20 14:43:49;;;;;;;6.00;3.08;;;;;;;;;;1718667;82;21548;-74
2022/02/20 14:46:15;;;;;;;7.17;3.55;;;;;;;;;;1719723;82;21047;-76
2022/02/20 14:48:41;;;;;;;12.28;4.78;;;;;;;;;;1720062;82;21578;-77
2022/02/20 14:51:08;;;;;;;7.78;4.00;;;;;;;;;;1720325;82;21578;-75
2022/02/20 14:53:34;;;;;;;11.43;5.08;;;;;;;;;;1719966;83;21036;-74
2022/02/20 14:56:00;;;;;;;7.37;3.50;;;;;;;;;;1719645;82;21028;-73